Terminal Aerodrome Forecast
Issued by NWS

Home | Current Version | Previous Version | Text Only | Print | Product List | Glossary On
Versions: 1 2 3 4 5 6 7 8 9 10 11 12 13 14 15 16 17 18 19 20 21 22 23 24 25 26 27 28 29 30 31 32 33
000
FTAK31 PANC 210522
TAFATK
TAF
PATK 210522Z 2106/2206 17007KT 3SM -SN BR SCT008 BKN025
      TEMPO 2106/2110 1SM -SN BR OVC008
     FM211000 VRB03KT 6SM -SHSN SCT018 BKN028
      TEMPO 2110/2114 3SM -SHSN BKN018 OVC028
     FM211400 17007KT P6SM VCSH SCT050 BKN080=

USA.gov is the U.S. government's official web portal to all federal, state and local government web resources and services.